Fort Benning, GA

1:45 AM EDT on August 31, 2014 (GMT -0400)
Columbus Metro | Change Station
CLOSE
Current Station
Airport
Location: Columbus,
Elevation: 397 ft
Nearby Weather Stations

Elev 397 ft 32.52 °N, 84.94 °W | Updated 54 minutes ago

Clear
Clear
75 °F
Feels Like 75 °F
N
0
Wind Variable Wind from North

Today
High -- | Low -- °F
--% Chance of Precip.
Yesterday
High -- | Low -- °F
Precip. -- in
7:14 AM 8:05 PM
Waxing Crescent, 28% visible
Pressure 30.12 in
Visibility 10.0 miles
Clouds Clear
Dew Point 74 °F
Humidity 96%
Rainfall 0.00 in
Snow Depth Not available.
UV 0 out of 12
Pollen 8.30 out of 12
Air Quality Not available.
Flu Activity Not available.
METAR KCSG 310451Z AUTO 00000KT 10SM CLR 24/23 A3013 RMK AO2 SLP197 T02390233 403560233

More Conditions Fewer Conditions

Pressure 30.12 in
Visibility 10.0 miles
Clouds Clear
Dew Point 74 °F
Humidity 96%
Rainfall 0.00 in
Snow Depth Not available.
UV 0 out of 12
Pollen 8.30 out of 12
Air Quality Not available.
Flu Activity Not available.
METAR KCSG 310451Z AUTO 00000KT 10SM CLR 24/23 A3013 RMK AO2 SLP197 T02390233 403560233

More Conditions Fewer Conditions

10-Day Weather Forecast

Almanac

Astronomy

Aug. 31, 2014 Rise Set
Actual Time 7:14 AM EDT 8:05 PM EDT
Civil Twilight 6:48 AM EDT 8:30 PM EDT
Nautical Twilight 6:19 AM EDT 8:59 PM EDT
Astronomical Twilight 5:48 AM EDT 9:30 PM EDT
Moon 12:39 PM EDT 11:41 PM EDT
Length of Visible Light 13h 41m
Length of Day
12h 51m
Tomorrow will be 1m 54s shorter.
Waxing Crescent, 28% of the Moon is Illuminated
Today
Waxing Crescent
Sep 2
First Quarter
Sep 8
Full
Sep 15
Last Quarter
Sep 24
New

Today's Extremes

State Highs State Lows

Community

WunderPhotos

Upload Photos

1,748,790 photos uploaded!

Nearby

Air Quality

  Air Quality AQ Index Pollutant
Sunday Good
PM2.5

Snow Depth

Station Depth Elevation
No new snow has been reported.

Earthquake Activity

City Distance Mag. Time & Date
No recent earthquake activity has been reported nearby.
Minimum magnitude displayed is 2.5.

Coastal Water Temperatures

Place Temperature
No Stations Reporting

Nearby Weather Stations